Welcome to Northern Hawkes Bay. New Zealand.
PWS Header
      nz Flag



Hit Counter


W3C Valid W3C Valid logo


    Wairoa

Select any of the Stations below to visit their websites.










Historic Data from Weather Underground
Select the location of interest below. Wairoa is the default. Please have patience, this Data is slow to load in.
Northern Hawkes Bay Historical Data
Daily Summary for July 12, 2017 Units:  English    Metric   Both
« Previous Day
Next Day »
Daily Weekly Monthly Yearly Custom
  High: Low: Average:
Temperature: 49.1 °F 37.8 °F 42.8 °F
Dew Point: 45.9 °F 36.7 °F 39.4 °F
Humidity: 98% 72% 88%
Wind Speed: 24.4mph 0mph 7.6mph
Wind Gust: 32.7mph - -
Wind- - WNW
Pressure: 29.8 in 29.7 in -
Precipitation: 0.22 in    
Historical Graphs
 
 
Tabular Data for July 12, 2017
Time Temperature Dew Point Pressure Wind Wind Speed Wind Gust Humidity Rainfall Rate (Hourly) solar
00:01 40.8 °F 39.6 °F 29.8 in NNW 7.6 mph 10.7 mph 95% 0 in 0 W/m2
00:06 40.6 °F 39.4 °F 29.8 in NW 6 mph 10.7 mph 95% 0 in 0 W/m2
00:11 40.5 °F 39 °F 29.8 in NNW 6.9 mph 10.7 mph 95% 0 in 0 W/m2
00:16 40.5 °F 39 °F 29.8 in NNW 6.9 mph 9.8 mph 95% 0 in 0 W/m2
00:21 40.5 °F 39 °F 29.8 in NNW 5.4 mph 10.7 mph 95% 0 in 0 W/m2
00:26 40.5 °F 39 °F 29.8 in NNW 6.9 mph 10.7 mph 95% 0 in 0 W/m2
00:31 40.5 °F 39 °F 29.8 in NNW 6 mph 10.7 mph 95% 0 in 0 W/m2
00:36 40.6 °F 39.4 °F 29.8 in NNW 6 mph 11.4 mph 95% 0 in 0 W/m2
00:41 40.6 °F 39.4 °F 29.8 in NNW 6 mph 11.4 mph 95% 0 in 0 W/m2
00:46 40.6 °F 39.4 °F 29.8 in NNW 5.4 mph 11.4 mph 95% 0 in 0 W/m2
00:51 40.5 °F 39 °F 29.8 in NW 6 mph 11.4 mph 95% 0 in 0 W/m2
00:56 40.3 °F 39 °F 29.8 in NNW 3.1 mph 9.8 mph 95% 0 in 0 W/m2
01:01 40.1 °F 38.8 °F 29.8 in North 3.1 mph 9.8 mph 95% 0 in 0 W/m2
01:06 40.3 °F 39 °F 29.8 in North 3.1 mph 6.9 mph 95% 0 in 0 W/m2
01:11 40.3 °F 39 °F 29.8 in North 1.6 mph 6.9 mph 95% 0 in 0 W/m2
01:32 40.3 °F 39 °F 29.8 in NNW 4.5 mph 8.3 mph 95% 0 in 0 W/m2
01:37 40.1 °F 38.5 °F 29.8 in NW 6.9 mph 7.6 mph 94% 0 in 0 W/m2
01:42 39.7 °F 38.1 °F 29.8 in NW 5.4 mph 9.2 mph 94% 0 in 0 W/m2
01:48 39.6 °F 37.9 °F 29.8 in NNW 5.4 mph 9.2 mph 94% 0 in 0 W/m2
01:53 39.4 °F 38.1 °F 29.8 in NW 5.4 mph 9.2 mph 95% 0 in 0 W/m2
01:58 39 °F 37.9 °F 29.8 in NW 3.8 mph 8.3 mph 96% 0 in 0 W/m2
01:59 39 °F 37.9 °F 29.8 in NW 4.5 mph 8.3 mph 96% 0 in 0 W/m2
02:04 39 °F 37.9 °F 29.8 in NNW 1.6 mph 8.3 mph 96% 0 in 0 W/m2
02:09 39 °F 37.9 °F 29.8 in NNW 3.8 mph 7.6 mph 96% 0 in 0 W/m2
02:14 39 °F 37.9 °F 29.8 in NNW 3.8 mph 7.6 mph 96% 0 in 0 W/m2
02:19 39 °F 37.9 °F 29.8 in NNW 4.5 mph 6 mph 96% 0 in 0 W/m2
02:24 38.8 °F 37.8 °F 29.8 in NNW 6 mph 9.2 mph 96% 0 in 0 W/m2
02:29 38.8 °F 37.8 °F 29.8 in NW 5.4 mph 9.2 mph 96% 0 in 0 W/m2
02:34 39 °F 37.9 °F 29.7 in NW 6 mph 9.8 mph 96% 0 in 0 W/m2
02:39 39 °F 38.1 °F 29.7 in NW 6.9 mph 9.8 mph 97% 0 in 0 W/m2
02:44 38.8 °F 38.1 °F 29.7 in NW 5.4 mph 9.8 mph 97% 0 in 0 W/m2
02:49 38.7 °F 37.6 °F 29.7 in NW 6 mph 9.8 mph 96% 0 in 0 W/m2
02:53 38.5 °F 37.4 °F 29.7 in NNW 5.4 mph 9.8 mph 96% 0 in 0 W/m2
02:59 38.5 °F 37.4 °F 29.7 in NNW 5.4 mph 8.3 mph 96% 0 in 0 W/m2
03:04 38.3 °F 37.2 °F 29.7 in NNW 5.4 mph 8.3 mph 96% 0 in 0 W/m2
03:09 38.1 °F 37.2 °F 29.7 in NNW 5.4 mph 8.3 mph 97% 0 in 0 W/m2
03:14 38.1 °F 37.2 °F 29.7 in NNW 4.5 mph 8.3 mph 97% 0 in 0 W/m2
03:19 38.1 °F 37.2 °F 29.7 in NNW 5.4 mph 7.6 mph 97% 0 in 0 W/m2
03:24 38.5 °F 37.8 °F 29.7 in NNW 6.9 mph 9.2 mph 97% 0 in 0 W/m2
03:29 38.7 °F 37.9 °F 29.7 in NNW 5.4 mph 9.2 mph 97% 0 in 0 W/m2
03:34 38.5 °F 37.8 °F 29.7 in NNW 6 mph 8.3 mph 97% 0 in 0 W/m2
03:39 38.5 °F 37.8 °F 29.7 in NNW 6 mph 9.2 mph 97% 0 in 0 W/m2
03:44 38.5 °F 37.8 °F 29.7 in NNW 6 mph 9.2 mph 97% 0 in 0 W/m2
03:49 38.5 °F 37.8 °F 29.7 in NNW 5.4 mph 9.2 mph 97% 0 in 0 W/m2
03:54 38.5 °F 37.8 °F 29.7 in NNW 5.4 mph 9.2 mph 97% 0 in 0 W/m2
03:59 38.5 °F 37.8 °F 29.7 in NNW 5.4 mph 10.7 mph 97% 0 in 0 W/m2
04:04 38.7 °F 37.9 °F 29.7 in NNW 4.5 mph 10.7 mph 97% 0 in 0 W/m2
04:09 38.7 °F 37.6 °F 29.7 in NNW 6.9 mph 9.8 mph 96% 0 in 0 W/m2
04:14 38.7 °F 37.6 °F 29.7 in NNW 3.8 mph 9.8 mph 96% 0 in 0 W/m2
04:19 38.5 °F 37.4 °F 29.7 in NNW 3.8 mph 9.8 mph 96% 0 in 0 W/m2
04:24 38.3 °F 37.2 °F 29.7 in NNW 5.4 mph 9.2 mph 96% 0 in 0 W/m2
04:29 38.1 °F 37 °F 29.7 in NW 6 mph 9.8 mph 96% 0 in 0 W/m2
04:34 38.1 °F 37 °F 29.7 in NW 5.4 mph 9.8 mph 96% 0 in 0 W/m2
04:39 38.1 °F 37 °F 29.7 in NNW 5.4 mph 9.2 mph 96% 0 in 0 W/m2
04:44 38.1 °F 37 °F 29.7 in NNW 6 mph 9.2 mph 96% 0 in 0 W/m2
04:49 38.1 °F 37 °F 29.7 in NNW 6 mph 9.8 mph 96% 0 in 0 W/m2
04:54 38.1 °F 37 °F 29.7 in NNW 5.4 mph 9.8 mph 96% 0 in 0 W/m2
04:59 38.1 °F 37 °F 29.7 in NNW 5.4 mph 9.8 mph 96% 0 in 0 W/m2
05:04 38.1 °F 37 °F 29.7 in NW 5.4 mph 10.7 mph 96% 0 in 0 W/m2
05:09 37.9 °F 36.9 °F 29.7 in NW 5.4 mph 10.7 mph 96% 0 in 0 W/m2
05:14 37.8 °F 36.7 °F 29.7 in NW 3.8 mph 8.3 mph 96% 0 in 0 W/m2
05:19 37.8 °F 36.7 °F 29.7 in NW 3.8 mph 6.9 mph 96% 0 in 0 W/m2
05:24 37.8 °F 36.7 °F 29.7 in NNW 5.4 mph 8.3 mph 96% 0 in 0 W/m2
05:29 37.8 °F 36.7 °F 29.7 in NNW 4.5 mph 8.3 mph 96% 0 in 0 W/m2
05:46 38.3 °F 37.6 °F 29.7 in NW 3.1 mph 6.9 mph 97% 0 in 0 W/m2
05:51 38.5 °F 37.8 °F 29.7 in NNW 3.8 mph 7.6 mph 97% 0 in 0 W/m2
05:56 38.7 °F 37.9 °F 29.7 in NNW 3.1 mph 7.6 mph 97% 0 in 0 W/m2
06:01 38.8 °F 38.1 °F 29.7 in NW 3.1 mph 6 mph 97% 0 in 0 W/m2
06:06 38.8 °F 38.1 °F 29.7 in NNW 3.1 mph 6 mph 97% 0 in 0 W/m2
06:11 39.2 °F 38.1 °F 29.7 in NNW 5.4 mph 8.3 mph 96% 0 in 0 W/m2
06:16 39.6 °F 38.5 °F 29.7 in NNW 4.5 mph 8.3 mph 96% 0 in 0 W/m2
06:21 39.6 °F 38.5 °F 29.7 in NNW 3.8 mph 8.3 mph 96% 0 in 0 W/m2
06:26 39.6 °F 38.5 °F 29.7 in NW 5.4 mph 9.2 mph 96% 0 in 0 W/m2
06:31 39.9 °F 38.7 °F 29.7 in NNW 6.9 mph 9.2 mph 95% 0 in 0 W/m2
06:36 40.1 °F 38.8 °F 29.7 in NW 5.4 mph 9.8 mph 95% 0 in 0 W/m2
06:41 40.3 °F 39 °F 29.7 in NW 4.5 mph 9.8 mph 95% 0 in 0 W/m2
06:46 40.5 °F 39 °F 29.7 in NNW 3.1 mph 9.2 mph 95% 0 in 0 W/m2
06:51 40.6 °F 39.4 °F 29.7 in NNW 4.5 mph 7.6 mph 95% 0 in 0 W/m2
06:56 40.8 °F 39.6 °F 29.7 in North 4.5 mph 7.6 mph 95% 0 in 0 W/m2
07:01 40.8 °F 39.6 °F 29.7 in NNW 3.1 mph 7.6 mph 95% 0 in 0 W/m2
07:06 40.8 °F 39.6 °F 29.7 in NNW 3.8 mph 7.6 mph 95% 0 in 0 W/m2
07:11 40.8 °F 39.6 °F 29.7 in NNW 5.4 mph 7.6 mph 95% 0 in 0 W/m2
07:16 40.6 °F 39.4 °F 29.7 in NNW 3.8 mph 6.9 mph 95% 0.01 in 0 W/m2
07:21 40.5 °F 39 °F 29.7 in NNW 3.8 mph 6.9 mph 95% 0.01 in 0 W/m2
07:26 40.5 °F 39 °F 29.7 in NW 6 mph 6.9 mph 95% 0.01 in 0 W/m2
07:31 40.6 °F 39.6 °F 29.7 in West 3.8 mph 8.3 mph 96% 0.02 in 0 W/m2
07:36 41.2 °F 39.9 °F 29.7 in WNW 3.1 mph 8.3 mph 95% 0.04 in 0 W/m2
07:41 41.2 °F 40.1 °F 29.7 in NW 3.1 mph 6.9 mph 96% 0.04 in 0 W/m2
07:46 41.2 °F 40.1 °F 29.7 in NW 0.7 mph 4.5 mph 96% 0.05 in 0 W/m2
07:51 41.2 °F 40.1 °F 29.7 in WNW 3.1 mph 4.5 mph 96% 0.05 in 0 W/m2
07:56 41.5 °F 40.5 °F 29.7 in NW 3.1 mph 4.5 mph 96% 0.05 in 0 W/m2
08:01 41.5 °F 40.5 °F 29.7 in NW 2.2 mph 5.4 mph 96% 0.06 in 0 W/m2
08:06 41.7 °F 40.8 °F 29.7 in WNW 0.7 mph 5.4 mph 97% 0.07 in 2 W/m2
08:24 43.7 °F 43.2 °F 29.7 in Calm   5.4 mph 98% 0.06 in 18 W/m2
08:29 43.9 °F 43.3 °F 29.7 in NW 1.6 mph 5.4 mph 98% 0.05 in 28 W/m2
08:34 44.1 °F 43.5 °F 29.7 in NW 1.6 mph 5.4 mph 98% 0.04 in 40 W/m2
08:39 43.9 °F 43.3 °F 29.7 in Calm   4.5 mph 98% 0.04 in 43 W/m2
08:44 44.2 °F 43.7 °F 29.7 in NNW 2.2 mph 4.5 mph 98% 0.02 in 54 W/m2
08:49 45 °F 44.2 °F 29.7 in NW 2.2 mph 4.5 mph 97% 0.02 in 59 W/m2
08:54 45.9 °F 45.1 °F 29.7 in WSW 2.2 mph 6.9 mph 97% 0.02 in 53 W/m2
08:59 46.4 °F 45.9 °F 29.7 in WSW 0.7 mph 6.9 mph 98% 0.01 in 48 W/m2
09:04 46.2 °F 45.3 °F 29.7 in NW 0.7 mph 4.5 mph 97% 0.01 in 36 W/m2
09:09 45.5 °F 44.8 °F 29.7 in NNW 1.6 mph 4.5 mph 97% 0.01 in 32 W/m2
09:14 45.3 °F 44.4 °F 29.7 in NW 1.6 mph 3.1 mph 97% 0.01 in 34 W/m2
09:19 45.1 °F 44.2 °F 29.7 in NNW 2.2 mph 3.1 mph 97% 0.01 in 28 W/m2
09:24 44.8 °F 44.1 °F 29.7 in NW 1.6 mph 3.8 mph 97% 0.01 in 34 W/m2
09:29 44.6 °F 43.9 °F 29.7 in NW 0.7 mph 3.8 mph 97% 0.01 in 54 W/m2
09:34 44.8 °F 44.1 °F 29.7 in NW 1.6 mph 3.8 mph 97% 0.01 in 58 W/m2
09:39 44.8 °F 44.1 °F 29.7 in NW 0.7 mph 3.8 mph 97% 0.01 in 52 W/m2
09:44 45 °F 44.2 °F 29.7 in NNW 0.7 mph 3.1 mph 97% 0.02 in 57 W/m2
09:49 45 °F 44.2 °F 29.7 in NNW 0.7 mph 3.1 mph 97% 0.02 in 46 W/m2
09:54 45 °F 44.2 °F 29.7 in NW 1.6 mph 3.8 mph 97% 0.02 in 32 W/m2
09:59 45.1 °F 44.2 °F 29.7 in WNW 8.3 mph 14.5 mph 97% 0.02 in 22 W/m2
10:04 45.3 °F 44.4 °F 29.7 in West 8.3 mph 14.5 mph 97% 0.02 in 30 W/m2
10:09 45.3 °F 44.2 °F 29.7 in WSW 9.8 mph 14.5 mph 96% 0.01 in 54 W/m2
10:14 45.1 °F 43.5 °F 29.7 in WSW 10.7 mph 14.5 mph 94% 0.01 in 70 W/m2
10:19 45.3 °F 43.2 °F 29.7 in WSW 7.6 mph 14.5 mph 92% 0.01 in 85 W/m2
10:24 45.5 °F 43 °F 29.7 in WSW 4.5 mph 12.1 mph 91% 0.01 in 91 W/m2
10:29 45.9 °F 42.8 °F 29.7 in SW 9.2 mph 13 mph 89% 0.01 in 85 W/m2
10:34 46.2 °F 42.6 °F 29.7 in WSW 8.3 mph 13 mph 87% 0.01 in 93 W/m2
10:39 46.4 °F 42.4 °F 29.7 in SW 8.3 mph 13.6 mph 86% 0.01 in 101 W/m2
10:44 46.6 °F 42.6 °F 29.7 in WSW 8.3 mph 13.6 mph 86% 0 in 58 W/m2
10:49 46.6 °F 42.3 °F 29.7 in WSW 6 mph 13.6 mph 85% 0 in 57 W/m2
10:54 46.4 °F 41.7 °F 29.7 in WSW 9.2 mph 13.6 mph 84% 0 in 53 W/m2
10:59 46.4 °F 41.5 °F 29.7 in WSW 3.1 mph 13.6 mph 83% 0 in 85 W/m2
11:04 46.4 °F 41.5 °F 29.7 in WSW 9.2 mph 13.6 mph 83% 0 in 108 W/m2
11:09 46.6 °F 41.4 °F 29.7 in West 6 mph 14.5 mph 82% 0 in 109 W/m2
11:14 46.8 °F 41.5 °F 29.7 in WNW 9.2 mph 15.2 mph 82% 0 in 118 W/m2
11:19 46.9 °F 41.7 °F 29.7 in West 7.6 mph 15.2 mph 82% 0 in 99 W/m2
11:24 46.9 °F 41.7 °F 29.7 in WSW 3.8 mph 15.2 mph 82% 0 in 83 W/m2
11:29 46.9 °F 41.7 °F 29.7 in WSW 3.8 mph 12.1 mph 82% 0 in 88 W/m2
11:34 46.9 °F 41.4 °F 29.7 in West 6.9 mph 10.7 mph 81% 0 in 104 W/m2
11:39 47.1 °F 41.4 °F 29.7 in WSW 3.8 mph 10.7 mph 80% 0 in 129 W/m2
11:44 47.5 °F 41.5 °F 29.7 in West 6 mph 9.8 mph 80% 0 in 145 W/m2
11:50 48 °F 42.3 °F 29.7 in West 4.5 mph 7.6 mph 80% 0 in 157 W/m2
11:55 48.2 °F 41.7 °F 29.7 in WSW 4.5 mph 10.7 mph 78% 0 in 148 W/m2
12:00 48.6 °F 42.1 °F 29.7 in WSW 3.1 mph 10.7 mph 78% 0 in 152 W/m2
12:18 49.1 °F 41.9 °F 29.7 in SW 5.4 mph 12.1 mph 76% 0 in 152 W/m2
12:23 48.9 °F 41.7 °F 29.7 in WSW 9.8 mph 13.6 mph 76% 0 in 121 W/m2
12:28 48.6 °F 41.4 °F 29.7 in West 11.4 mph 14.5 mph 76% 0 in 138 W/m2
12:33 48.4 °F 41.2 °F 29.7 in WSW 6.9 mph 14.5 mph 76% 0 in 137 W/m2
12:38 48.6 °F 41.4 °F 29.7 in WSW 8.3 mph 14.5 mph 76% 0 in 128 W/m2
12:43 48.4 °F 41.2 °F 29.7 in West 9.8 mph 14.5 mph 76% 0 in 100 W/m2
12:48 48.2 °F 41.4 °F 29.7 in West 10.7 mph 14.5 mph 77% 0 in 96 W/m2
12:53 48 °F 41.5 °F 29.7 in WSW 10.7 mph 15.9 mph 78% 0 in 99 W/m2
12:58 47.8 °F 41.5 °F 29.7 in WSW 9.8 mph 16.8 mph 79% 0 in 98 W/m2
13:03 47.5 °F 41.5 °F 29.7 in WSW 12.1 mph 19.7 mph 80% 0 in 99 W/m2
13:08 47.3 °F 41.7 °F 29.7 in SW 15.2 mph 20.6 mph 81% 0 in 54 W/m2
13:13 46.8 °F 41.9 °F 29.7 in SW 10.7 mph 20.6 mph 83% 0 in 70 W/m2
13:18 46.4 °F 41.7 °F 29.7 in SW 10.7 mph 19 mph 84% 0 in 68 W/m2
13:23 46 °F 41.7 °F 29.7 in WSW 8.3 mph 22.1 mph 85% 0 in 85 W/m2
13:28 45.7 °F 41.7 °F 29.7 in West 10.7 mph 22.1 mph 86% 0 in 101 W/m2
13:33 45.3 °F 42.1 °F 29.7 in WSW 13 mph 22.8 mph 88% 0 in 92 W/m2
13:38 45.3 °F 41.7 °F 29.7 in SW 11.4 mph 22.8 mph 87% 0 in 104 W/m2
13:43 45.7 °F 41.4 °F 29.7 in WSW 13.6 mph 22.1 mph 85% 0 in 72 W/m2
13:48 45.5 °F 41.4 °F 29.7 in SW 16.8 mph 22.1 mph 85% 0 in 70 W/m2
13:53 45 °F 40.6 °F 29.7 in WSW 18.3 mph 22.1 mph 85% 0 in 100 W/m2
13:58 45.1 °F 40.6 °F 29.7 in WSW 14.5 mph 25.9 mph 84% 0 in 136 W/m2
14:03 45.5 °F 41 °F 29.7 in WSW 13.6 mph 25.9 mph 84% 0 in 145 W/m2
14:08 45.7 °F 41.7 °F 29.7 in WSW 17.4 mph 24.4 mph 86% 0 in 129 W/m2
14:13 45.9 °F 41.5 °F 29.7 in WSW 7.6 mph 24.4 mph 85% 0 in 120 W/m2
14:18 45.7 °F 41.2 °F 29.7 in WSW 10.7 mph 19 mph 84% 0 in 107 W/m2
14:23 45.3 °F 40.5 °F 29.7 in WSW 8.3 mph 18.3 mph 83% 0 in 93 W/m2
14:28 44.6 °F 39.7 °F 29.7 in West 5.4 mph 18.3 mph 83% 0 in 82 W/m2
14:33 44.1 °F 39.7 °F 29.7 in West 6.9 mph 17.4 mph 85% 0 in 80 W/m2
14:38 43.3 °F 39.4 °F 29.7 in West 8.3 mph 17.4 mph 86% 0 in 83 W/m2
14:43 43.3 °F 39.4 °F 29.7 in WNW 3.8 mph 15.2 mph 86% 0 in 81 W/m2
14:48 43.2 °F 39.4 °F 29.7 in West 6.9 mph 13.6 mph 86% 0 in 45 W/m2
14:53 42.4 °F 38.8 °F 29.7 in WSW 6.9 mph 15.2 mph 87% 0 in 21 W/m2
14:58 42.1 °F 38.5 °F 29.7 in West 9.2 mph 15.2 mph 87% 0.01 in 16 W/m2
15:03 41.7 °F 38.1 °F 29.7 in West 4.5 mph 15.2 mph 87% 0.01 in 17 W/m2
15:08 41.5 °F 38.3 °F 29.7 in WSW 6.9 mph 14.5 mph 88% 0.02 in 19 W/m2
15:13 41.5 °F 38.5 °F 29.7 in West 6 mph 10.7 mph 89% 0.02 in 21 W/m2
15:18 41.5 °F 38.5 °F 29.7 in West 5.4 mph 13 mph 89% 0.02 in 21 W/m2
15:23 41.5 °F 38.3 °F 29.7 in West 6 mph 13 mph 88% 0.02 in 25 W/m2
15:28 41.5 °F 38.3 °F 29.7 in WNW 6.9 mph 12.1 mph 88% 0.02 in 26 W/m2
15:33 41.5 °F 38.3 °F 29.7 in NW 4.5 mph 12.1 mph 88% 0.02 in 22 W/m2
15:38 41.4 °F 38.1 °F 29.7 in NW 4.5 mph 7.6 mph 88% 0.02 in 26 W/m2
15:43 41.4 °F 38.1 °F 29.7 in WNW 6 mph 9.2 mph 88% 0.02 in 22 W/m2
15:48 41.2 °F 37.9 °F 29.7 in NW 3.8 mph 9.8 mph 88% 0.02 in 17 W/m2
15:53 41 °F 37.8 °F 29.7 in NW 5.4 mph 13.6 mph 88% 0.04 in 17 W/m2
15:58 40.8 °F 38.1 °F 29.7 in NW 6.9 mph 13.6 mph 90% 0.02 in 19 W/m2
16:03 40.8 °F 38.1 °F 29.7 in NW 6.9 mph 10.7 mph 90% 0.04 in 17 W/m2
16:08 40.6 °F 38.1 °F 29.7 in NW 6 mph 10.7 mph 91% 0.02 in 13 W/m2
16:13 40.5 °F 37.9 °F 29.7 in NW 8.3 mph 9.8 mph 91% 0.02 in 7 W/m2
16:18 40.3 °F 38.1 °F 29.7 in NW 3.8 mph 9.8 mph 92% 0.02 in 5 W/m2
16:23 40.1 °F 38.1 °F 29.7 in NW 6 mph 9.8 mph 93% 0.04 in 3 W/m2
16:28 40.1 °F 38.1 °F 29.7 in NW 6.9 mph 9.8 mph 93% 0.04 in 0 W/m2
16:33 40.1 °F 38.5 °F 29.7 in NW 5.4 mph 9.8 mph 94% 0.05 in 0 W/m2
16:38 39.7 °F 38.1 °F 29.7 in NNW 6 mph 9.8 mph 94% 0.05 in 0 W/m2
16:43 39.7 °F 38.1 °F 29.7 in NNW 4.5 mph 9.2 mph 94% 0.05 in 0 W/m2
16:48 39.7 °F 38.5 °F 29.7 in NNW 6 mph 8.3 mph 95% 0.06 in 0 W/m2
16:53 39.7 °F 38.5 °F 29.7 in NNW 3.1 mph 9.8 mph 95% 0.05 in 0 W/m2
16:58 39.7 °F 38.7 °F 29.7 in NW 6.9 mph 9.8 mph 96% 0.06 in 0 W/m2
17:03 39.7 °F 38.7 °F 29.7 in NW 4.5 mph 9.8 mph 96% 0.05 in 0 W/m2
17:08 39.7 °F 38.7 °F 29.7 in NW 3.8 mph 9.2 mph 96% 0.05 in 0 W/m2
17:13 39.7 °F 38.7 °F 29.7 in NNW 2.2 mph 7.6 mph 96% 0.06 in 0 W/m2
17:18 39.7 °F 39 °F 29.7 in NNW 6 mph 7.6 mph 97% 0.07 in 0 W/m2
17:23 39.6 °F 38.8 °F 29.7 in North 5.4 mph 9.8 mph 97% 0.06 in 0 W/m2
17:28 39.4 °F 38.7 °F 29.7 in NNW 2.2 mph 9.8 mph 97% 0.06 in 0 W/m2
17:33 39.6 °F 38.8 °F 29.7 in NW 3.1 mph 7.6 mph 97% 0.05 in 0 W/m2
17:38 39.7 °F 39 °F 29.7 in NW 2.2 mph 6.9 mph 97% 0.05 in 0 W/m2
17:43 40.3 °F 39.7 °F 29.7 in NW 4.5 mph 6 mph 98% 0.05 in 0 W/m2
17:48 41.4 °F 40.6 °F 29.7 in West 4.5 mph 12.1 mph 97% 0.05 in 0 W/m2
17:53 42.1 °F 41 °F 29.7 in West 7.6 mph 12.1 mph 96% 0.05 in 0 W/m2
17:58 42.4 °F 41.2 °F 29.7 in WSW 14.5 mph 18.3 mph 95% 0.04 in 0 W/m2
18:03 43.3 °F 40.8 °F 29.7 in West 14.5 mph 24.4 mph 91% 0.04 in 0 W/m2
18:08 44.1 °F 40.5 °F 29.7 in WNW 18.3 mph 30.4 mph 87% 0.02 in 0 W/m2
18:13 44.6 °F 39.6 °F 29.7 in West 18.3 mph 31.1 mph 82% 0.02 in 0 W/m2
18:18 44.8 °F 39.4 °F 29.7 in WSW 19.7 mph 31.1 mph 81% 0.01 in 0 W/m2
18:23 44.6 °F 38.8 °F 29.7 in SW 19.7 mph 32.7 mph 80% 0.01 in 0 W/m2
18:28 44.4 °F 38.3 °F 29.7 in SW 19 mph 32.7 mph 79% 0.01 in 0 W/m2
18:33 44.8 °F 38.3 °F 29.7 in WSW 13.6 mph 29.8 mph 78% 0.01 in 0 W/m2
18:38 44.6 °F 38.5 °F 29.7 in West 9.8 mph 29.8 mph 79% 0.01 in 0 W/m2
18:43 44.6 °F 38.5 °F 29.7 in WSW 21.3 mph 31.1 mph 79% 0.01 in 0 W/m2
18:48 44.8 °F 38.3 °F 29.7 in WSW 15.2 mph 31.1 mph 78% 0 in 0 W/m2
18:53 45 °F 38.8 °F 29.7 in West 16.8 mph 28.2 mph 79% 0 in 0 W/m2
18:58 44.8 °F 38.3 °F 29.7 in West 24.4 mph 31.1 mph 78% 0 in 0 W/m2
19:03 45 °F 37.9 °F 29.7 in WSW 13 mph 32 mph 76% 0 in 0 W/m2
19:08 45.1 °F 37.9 °F 29.7 in WSW 16.8 mph 32 mph 76% 0 in 0 W/m2
19:13 45.3 °F 37.6 °F 29.7 in WSW 14.5 mph 27.3 mph 74% 0 in 0 W/m2
19:18 45.1 °F 37 °F 29.7 in West 12.1 mph 25.9 mph 73% 0 in 0 W/m2
19:23 44.8 °F 36.7 °F 29.7 in West 9.8 mph 22.8 mph 73% 0 in 0 W/m2
19:28 44.8 °F 36.7 °F 29.7 in West 12.1 mph 21.3 mph 73% 0 in 0 W/m2
19:33 44.8 °F 37 °F 29.7 in West 6.9 mph 22.8 mph 74% 0 in 0 W/m2
19:38 45 °F 37.2 °F 29.7 in West 13 mph 24.4 mph 74% 0 in 0 W/m2
19:43 45.1 °F 37.8 °F 29.7 in West 19 mph 25.9 mph 75% 0 in 0 W/m2
19:48 45.1 °F 37.8 °F 29.7 in WSW 21.3 mph 27.3 mph 75% 0 in 0 W/m2
19:53 45.3 °F 37.9 °F 29.7 in West 16.8 mph 31.1 mph 75% 0 in 0 W/m2
19:58 45.1 °F 37.4 °F 29.7 in West 11.4 mph 31.1 mph 74% 0 in 0 W/m2
20:03 45 °F 36.9 °F 29.7 in West 8.3 mph 30.4 mph 73% 0 in 0 W/m2
20:08 45 °F 37.2 °F 29.7 in WSW 15.9 mph 23.5 mph 74% 0 in 0 W/m2
20:13 45 °F 37.2 °F 29.7 in SW 9.2 mph 23.5 mph 74% 0 in 0 W/m2
20:18 45.1 °F 37.8 °F 29.7 in WSW 7.6 mph 23.5 mph 75% 0 in 0 W/m2
20:23 45.1 °F 37.4 °F 29.7 in West 15.9 mph 20.6 mph 74% 0 in 0 W/m2
20:28 45.1 °F 37 °F 29.7 in WSW 6 mph 20.6 mph 73% 0 in 0 W/m2
20:33 45.1 °F 37.4 °F 29.7 in WSW 11.4 mph 21.3 mph 74% 0 in 0 W/m2
20:38 45.1 °F 37.8 °F 29.7 in WSW 14.5 mph 21.3 mph 75% 0 in 0 W/m2
20:43 45 °F 37.9 °F 29.7 in WSW 12.1 mph 25.1 mph 76% 0 in 0 W/m2
20:48 45 °F 38.1 °F 29.7 in WSW 19 mph 25.1 mph 77% 0 in 0 W/m2
20:53 45 °F 38.1 °F 29.7 in WSW 15.2 mph 24.4 mph 77% 0 in 0 W/m2
20:58 45.1 °F 37.9 °F 29.7 in West 14.5 mph 24.4 mph 76% 0 in 0 W/m2
21:03 45.1 °F 37.9 °F 29.7 in West 22.8 mph 28.9 mph 76% 0 in 0 W/m2
21:08 45.1 °F 37.9 °F 29.7 in West 9.2 mph 28.9 mph 76% 0 in 0 W/m2
21:13 45.1 °F 37.9 °F 29.7 in WSW 11.4 mph 28.9 mph 76% 0 in 0 W/m2
21:18 45.1 °F 37.8 °F 29.7 in West 15.2 mph 23.5 mph 75% 0 in 0 W/m2
21:23 45.1 °F 37.4 °F 29.7 in West 10.7 mph 22.8 mph 74% 0 in 0 W/m2
21:28 45.3 °F 37.6 °F 29.7 in West 14.5 mph 28.9 mph 74% 0 in 0 W/m2
21:33 45.1 °F 37.8 °F 29.7 in WSW 15.2 mph 28.9 mph 75% 0 in 0 W/m2
21:38 45.3 °F 37.9 °F 29.7 in SW 18.3 mph 25.1 mph 75% 0 in 0 W/m2
21:43 45.3 °F 37.9 °F 29.7 in WSW 13.6 mph 24.4 mph 75% 0 in 0 W/m2
21:48 45.5 °F 37.8 °F 29.7 in West 10.7 mph 24.4 mph 74% 0 in 0 W/m2
21:53 45.3 °F 37.9 °F 29.7 in West 10.7 mph 23.5 mph 75% 0 in 0 W/m2
21:58 45.1 °F 37.8 °F 29.7 in SW 14.5 mph 31.1 mph 75% 0 in 0 W/m2
22:03 45 °F 37.9 °F 29.7 in SW 13 mph 31.1 mph 76% 0 in 0 W/m2
22:08 45.1 °F 37.8 °F 29.7 in WSW 9.8 mph 27.3 mph 75% 0 in 0 W/m2
22:13 45.3 °F 37.6 °F 29.7 in WSW 12.1 mph 26.6 mph 74% 0 in 0 W/m2
22:18 45.3 °F 37.6 °F 29.7 in WSW 13 mph 26.6 mph 74% 0 in 0 W/m2
22:23 45.3 °F 37.9 °F 29.7 in West 11.4 mph 22.1 mph 75% 0 in 0 W/m2
22:28 45.1 °F 37.8 °F 29.7 in West 12.1 mph 30.4 mph 75% 0 in 0 W/m2
22:33 45 °F 37.6 °F 29.7 in WSW 14.5 mph 30.4 mph 75% 0 in 0 W/m2
22:38 45 °F 37.6 °F 29.7 in SW 10.7 mph 25.1 mph 75% 0 in 0 W/m2
22:43 45 °F 37.2 °F 29.7 in WSW 5.4 mph 25.1 mph 74% 0 in 0 W/m2
22:48 45 °F 37.6 °F 29.7 in WSW 7.6 mph 24.4 mph 75% 0 in 0 W/m2
22:53 45.1 °F 37.4 °F 29.7 in WSW 9.8 mph 18.3 mph 74% 0 in 0 W/m2
22:58 45.3 °F 37.6 °F 29.7 in WSW 15.2 mph 19.7 mph 74% 0 in 0 W/m2
23:03 45.3 °F 37.6 °F 29.7 in WSW 8.3 mph 20.6 mph 74% 0 in 0 W/m2
23:08 45.3 °F 37.6 °F 29.7 in WSW 6 mph 22.1 mph 74% 0 in 0 W/m2
23:13 45.3 °F 37.2 °F 29.7 in WSW 9.2 mph 22.1 mph 73% 0 in 0 W/m2
23:18 45.3 °F 36.9 °F 29.7 in WSW 5.4 mph 20.6 mph 72% 0 in 0 W/m2
23:23 45.5 °F 37 °F 29.7 in West 10.7 mph 21.3 mph 72% 0 in 0 W/m2
23:28 45.3 °F 36.9 °F 29.7 in West 13 mph 21.3 mph 72% 0 in 0 W/m2
23:33 45.3 °F 37.2 °F 29.7 in WSW 9.8 mph 18.3 mph 73% 0 in 0 W/m2
23:38 45.3 °F 37.2 °F 29.7 in WSW 8.3 mph 19.7 mph 73% 0 in 0 W/m2
23:43 45.3 °F 37.2 °F 29.7 in WSW 9.2 mph 19.7 mph 73% 0 in 0 W/m2
23:48 45.5 °F 37.4 °F 29.7 in SW 6.9 mph 17.4 mph 73% 0 in 0 W/m2
23:53 45.5 °F 37.4 °F 29.7 in West 7.6 mph 19 mph 73% 0 in 0 W/m2
23:58 45.5 °F 37 °F 29.7 in West 7.6 mph 19 mph 72% 0 in 0 W/m2
Northern Hawkes Bay. New Zealand Historic Data
Compliments of Weather Underground - 2.25 mb